< < Back
Terminal Aerodrome Forecast


Current Version              Previous Versions:   1  2  3  4  5  6  7  8  9  

Terminal Aerodrome Forecast

219
FTAK31 PAJN 021100
TAFAHN
TAF
PAHN 021125Z 0212/0312 00000KT 4SM BR BKN002 BKN010
      TEMPO 0212/0215 1/2SM FG VV002
     FM021500 12009KT P6SM FEW005 BKN015
     FM021800 12009KT P6SM BKN050
     FM030400 10005KT P6SM OVC050
      AMD LTD TO CLD VIS AND WIND=

Latest METAR

832
SAUS70 KWBC 021700
MTRAHN
METAR KAHN 021651Z 27005KT 10SM CLR 33/21 A3011 RMK AO2 SLP186
T03330206


USA.gov is the U.S. government's official web portal to all federal, state and local government web resources and services.